Latest Coastal Weather Observations for Legendre Island

IDW60701

Issued at 6:22 pm WST Monday 26 January 2015 (issued every 10 minutes, with the page automatically refreshed every 10 minutes)

About coastal observations | Map of coastal stations | Coastal observations for WA | Marine services | Other Formats
Station Details ID: 004095 Name: LEGENDRE ISLAND Lat: -20.36 Lon: 116.84 Height: 29.0 m
Data from the previous 72 hours. | See also: Recent months for locations in Western Australia
Date/Time
WST
Temp

°C
Wind Pressure Rain
since 9am
mm
Weather Cloud Vis
km
Sea
Height
m
Swell
Dir
 
Speed
knots
Gust
knots
hPa Trend Height
m
Period
s
Dir
26/06:00pm 28.8 NW 10 12 1005.3 - - - - - - - - -
26/05:30pm 29.2 NW 11 14 1005.3 - - - - - - - - -
26/05:00pm 29.8 NW 11 13 1005.3 - - - - - - - - -
26/04:30pm 30.1 NW 12 15 1005.2 - - - - - - - - -
26/04:00pm 30.2 NNW 11 13 1005.1 - - - - - - - - -
26/03:30pm 30.4 NNW 11 13 1005.3 - - - - - - - - -
26/03:00pm 30.3 NNW 10 12 1005.5 - - - - - - - - -
26/02:30pm 30.3 NNW 10 12 1005.6 - - - - - - - - -
26/02:00pm 30.6 NNW 9 12 1005.7 - - - - - - - - -
26/01:30pm 30.3 N 8 9 1006.0 - - - - - - - - -
26/01:00pm 29.9 N 7 9 1006.5 - - - - - - - - -
26/12:30pm 29.7 N 6 7 1006.7 - - - - - - - - -
26/12:00pm 29.8 NNW 6 8 1006.8 - - - - - - - - -
26/11:30am 29.9 N 8 9 1007.0 - - - - - - - - -
26/11:00am 29.5 N 8 9 1007.3 - - - - - - - - -
26/10:30am 29.3 N 8 9 1007.6 - - - - - - - - -
26/10:00am 29.6 N 6 8 1007.7 - - - - - - - - -
26/09:30am 28.6 N 6 7 1007.8 - - - - - - - - -
26/09:00am 28.9 N 8 9 1007.9 - - - - - - - - -
26/08:30am 28.4 N 6 7 1007.9 - - - - - - - - -
26/08:00am 28.0 NNE 3 4 1008.0 - - - - - - - - -
26/07:30am 27.2 NE 3 4 1007.7 - - - - - - - - -
26/07:00am 26.8 NW 2 2 1007.8 - - - - - - - - -
26/06:30am 26.4 WSW 1 3 1007.5 - - - - - - - - -
26/06:00am 26.2 W 5 7 1006.7 - - - - - - - - -
26/05:30am 26.1 W 7 9 1006.1 - - - - - - - - -
26/05:00am 26.1 W 9 11 1005.5 - - - - - - - - -
26/04:30am 26.0 W 10 13 1005.2 - - - - - - - - -
26/04:00am 26.0 W 10 13 1005.1 - - - - - - - - -
26/03:30am 26.1 W 12 15 1005.1 - - - - - - - - -
26/03:00am 26.1 W 12 15 1005.1 - - - - - - - - -
26/02:30am 26.1 W 10 12 1005.4 - - - - - - - - -
26/02:00am 26.2 W 10 13 1005.8 - - - - - - - - -
26/01:30am 26.2 W 14 17 1005.4 - - - - - - - - -
26/01:00am 26.3 WNW 16 20 1004.9 - - - - - - - - -
26/12:30am 26.6 WNW 16 18 1005.3 - - - - - - - - -
26/12:00am 26.5 NW 14 17 1005.3 - - - - - - - - -
 
Date/Time
WST
Temp

°C
Wind Pressure Rain
since 9am
mm
Weather Cloud Vis
km
Sea
Height
m
Swell
Dir
 
Speed
knots
Gust
knots
hPa Trend Height
m
Period
s
Dir
25/11:30pm 26.6 NW 11 13 1005.8 - - - - - - - - -
25/11:00pm 26.9 NW 9 12 1006.2 - - - - - - - - -
25/10:30pm 27.1 NNW 8 10 1006.6 - - - - - - - - -
25/10:00pm 27.2 NW 6 8 1006.7 - - - - - - - - -
25/09:30pm 27.1 CALM 0 3 1007.4 - - - - - - - - -
25/09:00pm 27.4 CALM 0 0 1007.8 - - - - - - - - -
25/08:30pm 27.3 W 2 3 1007.7 - - - - - - - - -
25/08:00pm 27.5 WNW 7 9 1007.3 - - - - - - - - -
25/07:30pm 27.7 NW 8 10 1006.9 - - - - - - - - -
25/07:00pm 27.9 NNW 7 8 1006.9 - - - - - - - - -
25/06:30pm 28.4 NW 6 8 1006.9 - - - - - - - - -
25/06:00pm 28.7 NW 6 8 1006.6 - - - - - - - - -
25/05:30pm 29.4 NW 9 10 1006.0 - - - - - - - - -
25/05:00pm 29.4 NW 10 12 1005.6 - - - - - - - - -
25/04:30pm 29.6 NNW 11 13 1005.1 - - - - - - - - -
25/04:00pm 30.2 NNW 11 13 1005.3 - - - - - - - - -
25/03:30pm 30.5 NNW 11 13 1005.6 - - - - - - - - -
25/03:00pm 30.8 NNW 11 13 1006.0 - - - - - - - - -
25/02:30pm 30.4 NNW 11 13 1006.3 - - - - - - - - -
25/02:00pm 30.4 N 11 14 1006.4 - - - - - - - - -
25/01:30pm 29.9 N 13 14 1006.6 - - - - - - - - -
25/01:00pm 30.3 N 12 14 1006.8 - - - - - - - - -
25/12:30pm 30.7 NNE 12 13 1007.3 - - - - - - - - -
25/12:00pm 31.0 NNE 11 12 1007.7 - - - - - - - - -
25/11:30am 29.6 NNE 8 9 1008.0 - - - - - - - - -
25/11:00am 30.2 NNW 7 10 1007.7 - - - - - - - - -
25/10:30am 30.7 WNW 12 14 1007.1 - - - - - - - - -
25/10:00am 30.0 WNW 14 17 1006.6 - - - - - - - - -
25/09:30am 30.2 WNW 15 18 1006.3 - - - - - - - - -
25/09:00am 29.6 WNW 12 15 1006.5 - - - - - - - - -
25/08:30am 29.3 NW 10 13 1006.8 - - - - - - - - -
25/08:00am 28.3 NNW 8 10 1007.0 - - - - - - - - -
25/07:30am 27.7 NNW 6 8 1006.6 - - - - - - - - -
25/07:00am 27.4 NW 10 12 1005.8 - - - - - - - - -
25/06:30am 27.3 NW 9 11 1005.3 - - - - - - - - -
25/06:00am 27.2 WNW 8 12 1005.1 - - - - - - - - -
25/05:30am 27.3 NW 8 11 1004.9 - - - - - - - - -
25/05:00am 27.3 WNW 11 15 1004.3 - - - - - - - - -
25/04:30am 27.3 WNW 13 16 1004.0 - - - - - - - - -
25/04:00am 27.3 WNW 10 13 1004.2 - - - - - - - - -
25/03:30am 27.3 WNW 10 13 1004.0 - - - - - - - - -
25/03:00am 27.4 WNW 13 16 1003.6 - - - - - - - - -
25/02:30am 27.4 W 13 15 1003.5 - - - - - - - - -
25/02:00am 27.3 WNW 16 20 1003.5 - - - - - - - - -
25/01:30am 27.3 WNW 15 17 1003.6 - - - - - - - - -
25/01:00am 27.3 WNW 12 15 1004.4 - - - - - - - - -
25/12:30am 27.6 NNW 9 10 1005.0 - - - - - - - - -
25/12:00am 27.5 WNW 7 8 1005.7 - - - - - - - - -
 
Date/Time
WST
Temp

°C
Wind Pressure Rain
since 9am
mm
Weather Cloud Vis
km
Sea
Height
m
Swell
Dir
 
Speed
knots
Gust
knots
hPa Trend Height
m
Period
s
Dir
24/11:30pm 27.5 WNW 6 8 1005.9 - - - - - - - - -
24/11:00pm 27.8 WSW 9 11 1006.3 - - - - - - - - -
24/10:30pm 27.9 W 11 13 1005.7 - - - - - - - - -
24/10:00pm 27.9 WSW 10 14 1005.6 - - - - - - - - -
24/09:30pm 27.9 W 13 15 1004.9 - - - - - - - - -
24/09:00pm 28.0 W 12 14 1004.9 - - - - - - - - -
24/08:30pm 28.1 WSW 12 14 1004.8 - - - - - - - - -
24/08:00pm 28.1 W 14 17 1004.6 - - - - - - - - -
24/07:30pm 28.1 W 16 18 1004.3 - - - - - - - - -
24/07:00pm 28.3 W 13 17 1004.0 - - - - - - - - -
24/06:30pm 28.7 W 14 17 1003.6 - - - - - - - - -
24/06:00pm 29.1 W 12 15 1003.3 - - - - - - - - -
24/05:30pm 29.7 W 12 15 1003.1 - - - - - - - - -
24/05:00pm 29.6 W 13 16 1003.0 - - - - - - - - -
24/04:30pm 29.7 W 13 16 1003.0 - - - - - - - - -
24/04:00pm 29.7 W 14 17 1002.9 - - - - - - - - -
24/03:30pm 30.0 W 13 15 1003.3 - - - - - - - - -
24/03:00pm 30.7 W 12 14 1003.6 - - - - - - - - -
24/02:30pm 31.4 W 13 15 1003.9 - - - - - - - - -
24/02:00pm 32.6 W 11 14 1004.0 - - - - - - - - -
24/01:30pm 31.9 WNW 11 13 1004.3 - - - - - - - - -
24/01:00pm 34.1 W 9 11 1004.7 - - - - - - - - -
24/12:30pm 34.1 W 8 9 1005.0 - - - - - - - - -
24/12:00pm 35.0 W 6 8 1005.3 - - - - - - - - -
24/11:30am 34.9 WSW 7 9 1005.7 - - - - - - - - -
24/11:00am 33.7 WSW 9 11 1005.8 - - - - - - - - -
24/10:30am 33.4 WSW 9 11 1006.0 - - - - - - - - -
24/10:00am 30.7 WSW 11 12 1006.2 - - - - - - - - -
24/09:30am 30.5 SW 12 15 1006.3 - - - - - - - - -
24/09:00am 29.9 WSW 12 15 1006.6 - - - - - - - - -
24/08:30am 29.0 W 8 9 1006.2 - - - - - - - - -
24/08:00am 28.3 WSW 11 13 1005.8 - - - - - - - - -
24/07:30am 28.1 WSW 12 14 1005.8 - - - - - - - - -
24/07:00am 27.8 WSW 13 16 1005.7 - - - - - - - - -
24/06:30am 28.0 SW 13 16 1005.3 - - - - - - - - -
24/06:00am 27.8 WSW 12 15 1005.0 - - - - - - - - -
24/05:30am 27.6 WSW 11 14 1004.5 - - - - - - - - -
24/05:00am 27.7 WSW 12 16 1004.2 - - - - - - - - -
24/04:30am 27.9 W 15 17 1003.5 - - - - - - - - -
24/04:00am 27.8 WNW 13 19 1003.3 - - - - - - - - -
24/03:30am 27.8 N 10 14 1003.6 - - - - - - - - -
24/03:00am 28.4 WSW 9 16 1003.6 - - - - - - - - -
24/02:30am 28.5 SW 10 15 1003.1 - - - - - - - - -
24/02:00am 28.2 SSW 5 11 1003.6 - - - - - - - - -
24/01:30am 28.2 SW 15 18 1003.3 - - - - - - - - -
24/01:00am 28.1 W 16 21 1003.1 - - - - - - - - -
24/12:30am 28.5 WSW 11 18 1003.4 - - - - - - - - -
24/12:13am 27.9 WSW 17 28 1003.6 - - - - - - - - -
24/12:00am 28.2 WSW 20 25 1003.7 - - - - - - - - -
 
Date/Time
WST
Temp

°C
Wind Pressure Rain
since 9am
mm
Weather Cloud Vis
km
Sea
Height
m
Swell
Dir
 
Speed
knots
Gust
knots
hPa Trend Height
m
Period
s
Dir
23/11:30pm 27.6 SW 25 33 1003.4 - - - - - - - - -
23/11:00pm 28.0 WSW 18 24 1004.1 - - - - - - - - -
23/10:30pm 28.2 SW 23 29 1004.6 - - - - - - - - -
23/10:24pm 28.1 SSW 26 32 1004.2 - - - - - - - - -
23/10:11pm 27.8 S 23 34 1004.0 - - - - - - - - -
23/10:00pm 27.6 SSW 21 29 1004.9 - - - - - - - - -
23/09:42pm 27.6 SW 19 27 1005.3 - - - - - - - - -
23/09:30pm 27.5 WSW 25 30 1003.9 - - - - - - - - -
23/09:16pm 27.8 W 26 33 1003.2 - - - - - - - - -
23/09:07pm 28.4 W 14 23 1004.2 - - - - - - - - -
23/09:00pm 28.5 W 7 12 1005.4 - - - - - - - - -
23/08:30pm 28.6 WSW 24 29 1004.0 - - - - - - - - -
23/08:00pm 28.1 SW 24 32 1004.6 - - - - - - - - -
23/07:57pm 28.0 WSW 23 30 1004.9 - - - - - - - - -
23/07:30pm 27.8 WSW 26 31 1003.2 - - - - - - - - -
23/07:00pm 27.9 WSW 26 32 1003.0 - - - - - - - - -
23/06:30pm 28.2 WSW 24 30 1002.6 - - - - - - - - -

Other Formats:

Comma delimited format used in spreadsheet applications
http://www.bom.gov.au/fwo/IDW60701/IDW60701.94307.axf

JavaScript Object Notation format (JSON) in row-major order
http://www.bom.gov.au/fwo/IDW60701/IDW60701.94307.json